Beverly Hills, CA (90209)

6:05 PM PST on December 22, 2014 (GMT -0800)
MacDumes - Park La Brea | Change Station
CLOSE
Current Station
Personal Weather Station
Location: Los Angeles, CA
Elevation: 217 ft
Nearby Weather Stations
Active Advisory: Wind Advisory Active Notice: Record Report, Public Information Statement

Elev 217 ft 34.07 °N, 118.35 °W | Updated 37 seconds ago

Partly Cloudy
Partly Cloudy
62.1 °F
Feels Like 62.1 °F
N
0.0
Wind Variable Wind from East
Gusts 0.0 mph

Today
High -- | Low -- °F
--% Chance of Precip.
Yesterday
High -- | Low -- °F
Precip. -- in
6:55 AM 4:48 PM
New Moon, 1% visible
Pressure 29.96 in
Visibility 0.5 miles
Clouds
Dew Point 62 °F
Humidity 99%
Rainfall 0.00 in
Snow Depth Not available.
UV Not available.
Pollen 5.20 out of 12
Air Quality Not available.
Flu Activity Not available.
METAR KSMO 230151Z 00000KT 1/2SM FG VV002 16/14 A2996 RMK AO2 SLP143 T01560144

More Conditions Fewer Conditions

Pressure 29.96 in
Visibility 0.5 miles
Clouds
Dew Point 62 °F
Humidity 99%
Rainfall 0.00 in
Snow Depth Not available.
UV Not available.
Pollen 5.20 out of 12
Air Quality Not available.
Flu Activity Not available.
METAR KSMO 230151Z 00000KT 1/2SM FG VV002 16/14 A2996 RMK AO2 SLP143 T01560144

More Conditions Fewer Conditions

Nowcast | as of 4:23 PM PST on December 22, 2014

Patchy dense fog will continue to impact the immediate coastal areas of Los Angeles County through the early evening hours...mainly from Santa Monica southward to the Palos Verdes Peninsula. Motorists should be prepared for sudden reductions in visibility...falling locally below one quarter mile. Major roadways that will likely be impacted by the dense fog include Pacific coast Highway and Interstate 10. At 4 PM...visibilities of one quarter to one half mile were being observed at the western runway of Los Angeles Airport as well as Santa Monica Airport. In addition...a weather spotter reported a visibility of one eighth mile at El Segundo...with zero visibility at Hermosa Beach. If driving...slow down...use your low beam headlights...and leave plenty of distance between your vehicle and the vehicle in front of you.

×

10-Day Weather Forecast

Almanac

Astronomy

Dec. 22, 2014 Rise Set
Actual Time
Civil Twilight
Nautical Twilight
Astronomical Twilight
Moon
Length of Visible Light
Length of Day
Tomorrow will be .
, % of the Moon is Illuminated

Today's Extremes

State Highs State Lows

Community

WunderPhotos

Upload Photos

1,779,759 photos uploaded!

WunderBlogs® & News

Nearby

Air Quality

  Air Quality AQ Index Pollutant
Not available.

Snow Depth

Station Depth Elevation

Earthquake Activity

City Distance Mag. Time & Date
Minimum magnitude displayed is 2.5.

Coastal Water Temperatures

Place Temperature

Nearby Weather Stations